Time;durP1;ratioP1;P1;durP2;ratioP2;P2;SDS_P1;SDS_P2;PMS_P1;PMS_P2;Temp;Humidity;BMP_temperature;BMP_pressure;BME280_temperature;BME280_humidity;BME280_pressure;Samples;Min_cycle;Max_cycle;Signal;HPM_P1;HPM_P2
2022/02/02 00:00:19;;;;;;;0.97;0.87;;;;;;;5.34;93.73;99694.47;5071270;28;20211;-74
2022/02/02 00:02:58;;;;;;;12.80;4.57;;;;;;;5.35;93.58;99696.13;5071310;28;20248;-74
2022/02/02 00:06:32;;;;;;;7.00;1.20;;;;;;;5.35;93.01;99708.81;5070250;28;20158;-73
2022/02/02 00:08:27;;;;;;;3.00;2.80;;;;;;;5.30;93.01;99703.50;5070312;28;20668;-73
2022/02/02 00:21:17;;;;;;;4.87;1.27;;;;;;;5.34;90.67;99691.78;5071066;28;20162;-74
2022/02/02 00:23:47;;;;;;;16.63;1.57;;;;;;;5.33;90.54;99697.50;5070938;28;20158;-74
2022/02/02 00:26:18;;;;;;;0.83;0.30;;;;;;;5.27;90.77;99704.09;5071262;28;20204;-74
2022/02/02 00:28:49;;;;;;;2.03;0.80;;;;;;;5.24;90.68;99708.19;5071015;28;20162;-73
2022/02/02 00:31:23;;;;;;;5.50;0.67;;;;;;;5.19;91.18;99710.97;5070843;28;20179;-73
2022/02/02 00:33:54;;;;;;;8.57;2.23;;;;;;;5.16;91.02;99703.44;5070807;28;20539;-74
2022/02/02 00:36:24;;;;;;;4.77;2.10;;;;;;;5.14;91.35;99713.75;5070725;28;20179;-74
2022/02/02 00:38:49;;;;;;;11.23;3.20;;;;;;;5.14;91.40;99727.31;5070827;28;20167;-74
2022/02/02 00:41:15;;;;;;;5.57;1.97;;;;;;;5.09;92.06;99721.97;5070802;28;20189;-74
2022/02/02 00:43:42;;;;;;;0.93;0.70;;;;;;;5.06;92.09;99719.81;5069489;28;20560;-73
2022/02/02 00:46:07;;;;;;;5.20;0.70;;;;;;;5.10;91.95;99731.69;5070428;28;20162;-73
2022/02/02 00:48:34;;;;;;;32.20;3.63;;;;;;;5.22;90.79;99729.34;5070779;28;20694;-73
2022/02/02 00:51:00;;;;;;;3.37;1.70;;;;;;;5.25;90.60;99723.34;5070649;28;20713;-74
2022/02/02 00:53:25;;;;;;;6.97;1.70;;;;;;;5.22;90.62;99728.56;5070782;28;20253;-73
2022/02/02 00:55:53;;;;;;;1.37;0.73;;;;;;;5.24;91.08;99726.34;5070539;28;20634;-74
2022/02/02 00:58:18;;;;;;;2.67;0.50;;;;;;;5.24;91.18;99724.44;5070624;28;20203;-73
2022/02/02 01:00:44;;;;;;;0.80;0.50;;;;;;;5.24;91.17;99727.16;5070601;28;20222;-73
2022/02/02 01:03:09;;;;;;;3.80;1.67;;;;;;;5.18;92.06;99728.31;5069164;28;20529;-73
2022/02/02 01:05:34;;;;;;;7.20;1.13;;;;;;;5.20;92.13;99744.25;5070284;28;20201;-73
2022/02/02 01:10:55;;;;;;;1.83;1.07;;;;;;;5.29;92.03;99740.63;5070546;28;20173;-73
2022/02/02 01:14:14;;;;;;;13.30;1.63;;;;;;;5.40;91.41;99740.47;5070865;28;20162;-73
2022/02/02 01:19:13;;;;;;;2.30;1.90;;;;;;;5.44;90.81;99744.19;5074426;28;20178;-73
2022/02/02 01:29:47;;;;;;;8.27;1.60;;;;;;;5.41;90.78;99742.88;5073938;28;20166;-73
2022/02/02 01:32:13;;;;;;;1.43;1.07;;;;;;;5.39;91.20;99745.09;5073705;28;20171;-73
2022/02/02 01:34:38;;;;;;;1.73;1.63;;;;;;;5.40;91.04;99735.84;5073128;28;20170;-73
2022/02/02 01:37:04;;;;;;;2.50;1.47;;;;;;;5.41;91.03;99747.50;5073697;28;20175;-74
2022/02/02 01:39:31;;;;;;;2.30;1.00;;;;;;;5.38;91.28;99749.69;5073435;28;20566;-72
2022/02/02 01:41:58;;;;;;;10.57;2.77;;;;;;;5.39;91.00;99755.91;5073400;28;20167;-72
2022/02/02 01:46:51;;;;;;;11.23;0.83;;;;;;;5.35;90.85;99766.53;5073339;28;20218;-74
2022/02/02 01:57:28;;;;;;;2.90;1.80;;;;;;;5.17;93.70;99756.50;5073294;28;20193;-74
2022/02/02 01:59:54;;;;;;;7.20;1.67;;;;;;;5.08;95.02;99778.03;5072714;28;20190;-73
2022/02/02 02:02:19;;;;;;;3.70;0.60;;;;;;;5.05;95.94;99764.22;5072998;28;20244;-73
2022/02/02 02:04:45;;;;;;;4.97;0.63;;;;;;;4.96;97.26;99755.97;5072861;28;20197;-76
2022/02/02 02:07:10;;;;;;;1.57;0.83;;;;;;;4.86;99.14;99774.25;5072931;28;20206;-74
2022/02/02 02:09:35;;;;;;;1.40;0.73;;;;;;;4.78;100.00;99776.50;5072928;28;20278;-75
2022/02/02 02:12:04;;;;;;;3.00;1.13;;;;;;;4.71;100.00;99776.03;5072988;28;20678;-72
2022/02/02 02:17:04;;;;;;;2.43;1.37;;;;;;;4.63;100.00;99803.75;5072854;28;20527;-73
2022/02/02 02:19:30;;;;;;;7.43;1.47;;;;;;;4.57;100.00;99826.53;5072779;28;20243;-73
2022/02/02 02:21:55;;;;;;;0.83;0.83;;;;;;;4.44;100.00;99819.06;5072946;28;20265;-74
2022/02/02 02:24:21;;;;;;;1.50;1.37;;;;;;;4.26;100.00;99798.19;5072394;28;20171;-76
2022/02/02 02:26:47;;;;;;;2.23;1.63;;;;;;;4.20;100.00;99802.03;5071427;28;20209;-74
2022/02/02 03:30:42;;;;;;;1.53;0.40;;;;;;;4.80;93.62;99805.97;5071606;28;20197;-74
2022/02/02 03:50:15;;;;;;;12.67;2.57;;;;;;;4.93;91.03;99829.66;5051302;28;20199;-73
2022/02/02 04:00:20;;;;;;;2.00;0.50;;;;;;;4.75;94.50;99860.94;5051193;28;20254;-74
2022/02/02 04:07:48;;;;;;;10.70;1.33;;;;;;;4.43;97.11;99849.91;5051410;28;20290;-73
2022/02/02 04:10:15;;;;;;;0.47;0.17;;;;;;;4.39;97.17;99863.22;5051215;28;20355;-73
2022/02/02 04:12:52;;;;;;;0.87;0.70;;;;;;;4.33;97.70;99871.63;5051027;28;20170;-74
2022/02/02 04:58:46;;;;;;;0.20;0.20;;;;;;;3.98;100.00;99935.72;5049188;28;20191;-73
2022/02/02 05:04:21;;;;;;;0.80;0.70;;;;;;;4.09;100.00;99933.75;5050299;28;20190;-73
2022/02/02 05:06:53;;;;;;;0.97;0.47;;;;;;;4.10;100.00;99908.34;5050656;28;20191;-73
2022/02/02 05:51:51;;;;;;;7.23;0.83;;;;;;;4.10;95.98;99978.63;5050135;28;20813;-73
2022/02/02 05:54:17;;;;;;;3.30;1.27;;;;;;;4.12;95.62;99990.75;5048535;28;20176;-74
2022/02/02 05:56:47;;;;;;;18.17;4.60;;;;;;;4.13;96.07;99981.56;5049858;28;20176;-73
2022/02/02 05:59:12;;;;;;;3.40;0.60;;;;;;;4.15;95.81;99998.31;5050204;28;20658;-73
2022/02/02 06:01:44;;;;;;;4.70;0.37;;;;;;;4.17;95.55;100004.25;5050280;28;20164;-74
2022/02/02 06:04:14;;;;;;;0.83;0.40;;;;;;;4.21;94.90;100004.50;5053594;28;20187;-73
2022/02/02 06:06:40;;;;;;;25.07;1.63;;;;;;;4.26;94.87;100006.38;5053182;28;20683;-75
2022/02/02 06:09:06;;;;;;;7.37;1.47;;;;;;;4.38;94.06;100009.53;5053481;28;20183;-73
2022/02/02 06:11:33;;;;;;;1.57;0.57;;;;;;;4.44;93.36;100022.72;5052086;28;20274;-73
2022/02/02 06:13:59;;;;;;;4.10;1.43;;;;;;;4.50;93.56;100026.22;5053480;28;20179;-73
2022/02/02 06:16:29;;;;;;;2.40;2.10;;;;;;;4.53;93.57;100030.25;5053069;28;20650;-73
2022/02/02 06:18:56;;;;;;;0.93;0.43;;;;;;;4.53;93.21;100027.56;5053104;28;20567;-74
2022/02/02 06:21:28;;;;;;;2.47;1.07;;;;;;;4.52;93.89;100039.47;5053304;28;20367;-73
2022/02/02 06:23:58;;;;;;;3.63;0.30;;;;;;;4.50;93.87;100037.03;5053209;28;20226;-73
2022/02/02 06:26:24;;;;;;;7.87;2.43;;;;;;;4.48;93.40;100047.31;5051451;28;20219;-74
2022/02/02 06:28:51;;;;;;;11.20;2.03;;;;;;;4.51;92.98;100033.25;5053045;28;20707;-74
2022/02/02 06:31:18;;;;;;;0.77;0.43;;;;;;;4.50;92.98;100042.44;5052896;28;20176;-73
2022/02/02 06:33:47;;;;;;;8.10;1.40;;;;;;;4.50;92.86;100044.34;5052869;28;20220;-74
2022/02/02 06:36:12;;;;;;;4.83;1.33;;;;;;;4.48;93.17;100037.31;5052720;28;20308;-75
2022/02/02 06:38:38;;;;;;;0.53;0.50;;;;;;;4.52;92.91;100040.28;5052975;28;20206;-73
2022/02/02 06:41:06;;;;;;;3.70;2.10;;;;;;;4.50;92.10;100044.34;5052749;28;20183;-73
2022/02/02 06:43:31;;;;;;;47.00;2.00;;;;;;;4.50;91.91;100044.34;5052884;28;20213;-72
2022/02/02 06:46:00;;;;;;;2.30;1.20;;;;;;;4.47;92.07;100053.81;5052564;28;20163;-73
2022/02/02 06:48:27;;;;;;;0.87;0.63;;;;;;;4.46;92.16;100055.72;5052654;28;20533;-73
2022/02/02 06:51:05;;;;;;;11.03;2.10;;;;;;;4.48;92.52;100067.09;5052731;28;20610;-73
2022/02/02 06:53:46;;;;;;;0.77;0.27;;;;;;;4.46;93.24;100057.59;5052610;28;20205;-77
2022/02/02 06:56:46;;;;;;;0.73;0.43;;;;;;;4.41;94.08;100082.78;5052408;28;20194;-74
2022/02/02 06:59:30;;;;;;;5.27;2.13;;;;;;;4.48;93.61;100064.38;5051292;28;20229;-73
2022/02/02 07:12:48;;;;;;;19.40;1.03;;;;;;;4.57;92.81;100110.56;5052104;28;20170;-73
2022/02/02 07:15:23;;;;;;;4.23;1.43;;;;;;;4.55;92.60;100126.28;5052002;28;20167;-73
2022/02/02 07:28:01;;;;;;;4.27;1.53;;;;;;;4.57;91.61;100153.84;5051865;28;20207;-73
2022/02/02 07:33:18;;;;;;;3.53;2.10;;;;;;;4.59;91.48;100175.22;5051561;28;20163;-72
2022/02/02 07:38:15;;;;;;;5.03;0.87;;;;;;;4.54;92.49;100172.53;5051734;28;20487;-73
2022/02/02 07:40:45;;;;;;;10.43;1.80;;;;;;;4.53;92.40;100185.25;5051627;28;20191;-74
2022/02/02 07:43:23;;;;;;;1.27;0.67;;;;;;;4.53;92.05;100185.25;5051941;28;20254;-73
2022/02/02 07:45:57;;;;;;;5.67;1.93;;;;;;;4.53;91.71;100189.84;5051380;28;20198;-73
2022/02/02 07:48:22;;;;;;;1.63;1.20;;;;;;;4.52;91.75;100189.03;5051506;28;20674;-73
2022/02/02 07:50:48;;;;;;;0.17;0.17;;;;;;;4.50;91.36;100195.81;5051489;28;20175;-73
2022/02/02 07:53:16;;;;;;;5.30;1.43;;;;;;;4.41;91.93;100188.28;5051323;28;20183;-74
2022/02/02 07:55:46;;;;;;;1.23;0.50;;;;;;;4.39;91.93;100195.84;5051319;28;20524;-73
2022/02/02 07:58:17;;;;;;;4.40;1.03;;;;;;;4.31;93.11;100192.91;5051374;28;20182;-74
2022/02/02 08:00:42;;;;;;;0.40;0.30;;;;;;;4.25;93.53;100205.66;5051407;28;20568;-75
2022/02/02 08:03:11;;;;;;;1.43;0.67;;;;;;;4.21;94.33;100222.69;5051562;28;20171;-74
2022/02/02 08:05:45;;;;;;;4.80;1.13;;;;;;;4.15;95.50;100205.66;5051209;28;20612;-73
2022/02/02 08:08:25;;;;;;;2.80;1.80;;;;;;;4.09;96.00;100202.19;5051223;28;20205;-74
2022/02/02 08:10:51;;;;;;;8.57;1.80;;;;;;;4.09;96.02;100223.81;5051258;28;20156;-75
2022/02/02 08:13:22;;;;;;;4.03;1.70;;;;;;;4.15;95.32;100240.81;5054882;28;20565;-74
2022/02/02 08:15:56;;;;;;;19.40;1.10;;;;;;;4.23;94.72;100242.97;5061337;28;20174;-73
2022/02/02 08:18:21;;;;;;;3.60;2.27;;;;;;;4.27;95.31;100244.03;5071016;28;20174;-73
2022/02/02 08:20:48;;;;;;;1.23;0.50;;;;;;;4.36;94.57;100252.41;5071108;28;20167;-74
2022/02/02 08:23:13;;;;;;;10.17;2.23;;;;;;;4.38;94.27;100267.25;5071697;28;20174;-73
2022/02/02 08:25:40;;;;;;;1.77;1.37;;;;;;;4.41;94.15;100264.00;5070250;28;20186;-73
2022/02/02 08:28:05;;;;;;;6.47;1.30;;;;;;;4.43;93.87;100274.53;5071314;28;20673;-74
2022/02/02 08:30:32;;;;;;;2.63;0.70;;;;;;;4.43;93.58;100280.75;5071105;28;20202;-73
2022/02/02 08:33:01;;;;;;;8.33;2.63;;;;;;;4.45;93.52;100275.06;5071275;28;20170;-73
2022/02/02 08:35:30;;;;;;;2.30;0.50;;;;;;;4.45;93.81;100289.41;5071082;28;20181;-74
2022/02/02 08:40:46;;;;;;;3.20;0.67;;;;;;;4.52;92.27;100299.16;5071522;28;20178;-72
2022/02/02 08:43:20;;;;;;;7.90;0.63;;;;;;;4.56;91.92;100316.44;5071214;28;20158;-74
2022/02/02 08:45:48;;;;;;;5.60;2.13;;;;;;;4.61;91.11;100319.94;5070975;28;20164;-73
2022/02/02 08:48:19;;;;;;;0.83;0.20;;;;;;;4.64;91.41;100327.53;5070869;28;20198;-72
2022/02/02 08:50:53;;;;;;;3.80;1.47;;;;;;;4.65;90.84;100315.63;5070998;28;20170;-73
2022/02/02 09:00:52;;;;;;;2.80;1.63;;;;;;;4.68;90.34;100338.59;5070949;28;20181;-73
2022/02/02 09:06:02;;;;;;;1.83;1.07;;;;;;;4.66;91.40;100346.19;5070483;28;20197;-73
2022/02/02 09:08:30;;;;;;;5.40;1.40;;;;;;;4.66;91.20;100352.41;5069164;28;20705;-73
2022/02/02 09:22:52;;;;;;;7.70;0.60;;;;;;;4.73;90.78;100365.63;5070737;28;20224;-73
2022/02/02 09:25:04;;;;;;;11.63;1.30;;;;;;;4.75;90.63;100369.69;5069889;28;20554;-72
2022/02/02 09:35:35;;;;;;;0.43;0.43;;;;;;;4.85;89.43;100368.06;5070328;28;20174;-71
2022/02/02 09:38:02;;;;;;;5.63;1.70;;;;;;;4.86;89.82;100375.09;5073698;28;20171;-72
2022/02/02 09:43:21;;;;;;;2.40;1.50;;;;;;;4.92;89.59;100392.91;5074341;28;20283;-72
2022/02/02 09:45:58;;;;;;;2.93;2.80;;;;;;;4.98;90.00;100405.38;5073913;28;20163;-71
2022/02/02 09:48:32;;;;;;;5.23;1.83;;;;;;;4.96;88.95;100402.94;5073931;28;20666;-71
2022/02/02 09:51:04;;;;;;;4.53;1.23;;;;;;;4.97;89.39;100401.03;5073897;28;20220;-72
2022/02/02 09:53:38;;;;;;;2.10;1.20;;;;;;;4.97;88.82;100395.63;5068806;28;20274;-72
2022/02/02 09:56:18;;;;;;;1.57;1.40;;;;;;;4.98;88.99;100400.75;5060171;28;20167;-72
2022/02/02 10:06:28;;;;;;;5.47;0.80;;;;;;;5.04;86.43;100415.09;5072821;28;20179;-72
2022/02/02 10:12:41;;;;;;;4.63;1.60;;;;;;;5.24;86.98;100435.91;5073354;28;20617;-72
2022/02/02 10:14:24;;;;;;;10.00;1.37;;;;;;;5.35;86.28;100441.00;5072238;28;20186;-72
2022/02/02 10:16:50;;;;;;;11.37;0.60;;;;;;;5.41;85.50;100449.09;5072562;28;20167;-71
2022/02/02 10:19:21;;;;;;;0.57;0.30;;;;;;;5.45;85.21;100445.56;5072762;28;20178;-72
2022/02/02 10:21:47;;;;;;;20.63;1.47;;;;;;;5.44;84.74;100453.97;5072935;28;20166;-71
2022/02/02 10:24:13;;;;;;;2.70;1.43;;;;;;;5.40;84.04;100450.19;5072794;28;20171;-71
2022/02/02 10:26:49;;;;;;;3.03;1.00;;;;;;;5.37;83.17;100455.09;5071926;28;20638;-72
2022/02/02 10:29:16;;;;;;;1.10;0.73;;;;;;;5.40;83.41;100461.84;5072744;28;20182;-72
2022/02/02 10:31:49;;;;;;;2.07;1.70;;;;;;;5.34;82.39;100471.06;5072789;28;20177;-71
2022/02/02 10:34:20;;;;;;;8.77;1.77;;;;;;;5.37;83.27;100465.09;5072814;28;20170;-72
2022/02/02 10:37:15;;;;;;;4.00;1.70;;;;;;;5.42;83.90;100464.28;5070967;28;20181;-72
2022/02/02 10:39:49;;;;;;;2.10;0.83;;;;;;;5.41;83.32;100465.38;5072392;28;20175;-72
2022/02/02 10:42:33;;;;;;;3.57;1.07;;;;;;;5.43;83.06;100476.72;5071112;28;20186;-71
2022/02/02 10:45:15;;;;;;;1.43;0.70;;;;;;;5.40;84.14;100488.13;5072218;28;20202;-72
2022/02/02 10:47:42;;;;;;;4.57;0.87;;;;;;;5.40;84.24;100501.66;5071703;28;20662;-72
2022/02/02 10:50:23;;;;;;;0.83;0.60;;;;;;;5.39;84.15;100498.16;5072119;28;20163;-72
2022/02/02 10:53:12;;;;;;;1.43;1.03;;;;;;;5.41;83.55;100498.69;5072332;28;20646;-71
2022/02/02 11:08:53;;;;;;;3.60;1.70;;;;;;;5.42;83.20;100521.97;5071930;28;20228;-72
2022/02/02 11:11:19;;;;;;;2.03;0.43;;;;;;;5.40;81.36;100520.63;5072997;28;20166;-71
2022/02/02 11:13:57;;;;;;;8.00;1.37;;;;;;;5.40;82.71;100528.75;5071823;28;20602;-71
2022/02/02 11:16:29;;;;;;;7.63;1.60;;;;;;;5.35;83.76;100532.28;5071647;28;20202;-72
2022/02/02 11:18:55;;;;;;;0.80;0.67;;;;;;;5.29;85.67;100533.38;5071883;28;20197;-71
2022/02/02 11:21:34;;;;;;;3.77;0.87;;;;;;;5.13;88.14;100543.44;5071785;28;20642;-71
2022/02/02 11:24:13;;;;;;;2.57;1.77;;;;;;;5.08;89.45;100552.38;5071757;28;20174;-72
2022/02/02 11:26:44;;;;;;;0.53;0.27;;;;;;;5.12;88.75;100546.41;5071301;28;20182;-71
2022/02/02 11:29:19;;;;;;;6.70;1.07;;;;;;;5.16;88.28;100537.47;5071920;28;20626;-71
2022/02/02 11:32:14;;;;;;;3.27;0.57;;;;;;;5.25;85.15;100560.22;5071448;28;20227;-71
2022/02/02 11:34:42;;;;;;;0.83;0.27;;;;;;;5.49;84.71;100562.31;5061937;28;20191;-71
2022/02/02 11:37:10;;;;;;;12.17;1.40;;;;;;;5.73;84.52;100562.53;5071466;28;20678;-71
2022/02/02 11:39:57;;;;;;;12.90;1.00;;;;;;;5.87;83.29;100596.91;5071061;28;20170;-71
2022/02/02 11:42:57;;;;;;;2.33;0.57;;;;;;;5.81;80.94;100579.06;5071322;28;20181;-72
2022/02/02 11:45:36;;;;;;;0.97;0.97;;;;;;;5.67;82.20;100589.66;5071064;28;20181;-72
2022/02/02 11:48:08;;;;;;;0.57;0.57;;;;;;;5.58;83.34;100583.16;5071142;28;20222;-72
2022/02/02 11:50:48;;;;;;;8.00;1.73;;;;;;;5.69;83.28;100589.38;5071055;28;20669;-72
2022/02/02 11:53:47;;;;;;;2.20;0.73;;;;;;;5.95;83.88;100595.56;5071142;28;20171;-72
2022/02/02 11:56:13;;;;;;;3.37;0.60;;;;;;;5.91;83.25;100598.00;5070738;28;20171;-72
2022/02/02 11:58:38;;;;;;;7.17;0.93;;;;;;;5.91;83.24;100600.72;5070929;28;20190;-72
2022/02/02 12:04:10;;;;;;;0.53;0.53;;;;;;;5.89;83.28;100615.63;5071039;28;20269;-72
2022/02/02 13:00:10;;;;;;;2.67;1.47;;;;;;;6.66;71.90;100629.72;5070397;28;20219;-72
2022/02/02 13:02:38;;;;;;;1.53;0.50;;;;;;;6.80;72.40;100622.56;5070161;28;20213;-72
2022/02/02 13:05:05;;;;;;;0.30;0.30;;;;;;;6.82;71.57;100634.75;5069975;28;20205;-72
2022/02/02 13:07:31;;;;;;;3.30;0.60;;;;;;;6.71;70.94;100622.31;5069920;28;20285;-72
2022/02/02 13:10:04;;;;;;;11.57;0.77;;;;;;;6.80;72.12;100619.84;5069982;28;20224;-72
2022/02/02 13:12:39;;;;;;;0.10;0.10;;;;;;;6.81;71.54;100637.75;5073012;28;20162;-72
2022/02/02 13:17:42;;;;;;;1.20;0.20;;;;;;;6.74;72.22;100713.25;5074013;28;20662;-72
2022/02/02 13:20:11;;;;;;;3.50;0.47;;;;;;;6.74;73.77;100691.53;5073909;28;20174;-72
2022/02/02 13:22:38;;;;;;;0.63;0.20;;;;;;;6.79;74.59;100653.50;5073896;28;20166;-72
2022/02/02 13:25:17;;;;;;;2.27;0.93;;;;;;;6.94;75.59;100660.72;5073379;28;20239;-71
2022/02/02 13:27:50;;;;;;;4.83;0.93;;;;;;;7.00;75.44;100675.91;5073658;28;20579;-72
2022/02/02 13:30:50;;;;;;;1.83;0.60;;;;;;;6.86;74.49;100673.00;5072771;28;20167;-72
2022/02/02 13:33:30;;;;;;;5.30;0.73;;;;;;;6.63;75.11;100662.81;5073691;28;20190;-72
2022/02/02 13:36:33;;;;;;;1.50;0.67;;;;;;;6.45;75.28;100661.56;5073559;28;20259;-72
2022/02/02 13:45:04;;;;;;;2.10;0.63;;;;;;;5.92;73.50;100644.91;5068692;28;20185;-72
2022/02/02 13:52:48;;;;;;;0.60;0.57;;;;;;;5.70;72.97;100691.31;5074213;28;20182;-72
2022/02/02 13:55:36;;;;;;;4.67;0.40;;;;;;;5.72;72.92;100686.41;5073702;28;20166;-72
2022/02/02 13:58:35;;;;;;;0.57;0.20;;;;;;;5.75;71.77;100679.63;5074162;28;20159;-72
2022/02/02 14:01:29;;;;;;;1.57;0.50;;;;;;;5.87;70.45;100688.28;5073700;28;20263;-72
2022/02/02 14:09:19;;;;;;;5.63;0.50;;;;;;;6.07;69.58;100709.16;5073873;28;20197;-71
2022/02/02 14:31:09;;;;;;;11.40;0.47;;;;;;;5.40;73.00;100726.53;5072504;28;20249;-72
2022/02/02 14:33:36;;;;;;;1.60;0.10;;;;;;;5.40;74.03;100730.06;5072883;28;20213;-72
2022/02/02 14:36:04;;;;;;;12.03;0.97;;;;;;;5.52;74.46;100735.22;5072341;28;20204;-72
2022/02/02 14:38:37;;;;;;;1.20;0.87;;;;;;;5.60;72.99;100742.78;5072496;28;20167;-72
2022/02/02 14:41:14;;;;;;;18.53;0.87;;;;;;;5.61;70.18;100750.66;5072240;28;20170;-72
2022/02/02 14:44:26;;;;;;;0.20;0.20;;;;;;;5.57;69.76;100760.41;5072570;28;20528;-73
2022/02/02 14:46:36;;;;;;;2.33;0.30;;;;;;;5.46;71.04;100761.47;5071614;28;20413;-72
2022/02/02 14:49:13;;;;;;;0.83;0.37;;;;;;;5.45;70.51;100767.97;5072329;28;20201;-73
2022/02/02 15:29:05;;;;;;;1.67;0.70;;;;;;;5.10;75.13;100833.75;5071902;28;20260;-72
2022/02/02 15:31:31;;;;;;;1.00;0.40;;;;;;;5.05;75.77;100833.69;5071789;28;20189;-71
2022/02/02 15:33:58;;;;;;;5.00;0.47;;;;;;;5.00;76.75;100828.28;5071588;28;20163;-72
2022/02/02 15:39:12;;;;;;;0.27;0.27;;;;;;;4.88;78.68;100847.44;5071640;28;20300;-72
2022/02/02 15:41:55;;;;;;;2.97;1.03;;;;;;;4.84;79.43;100849.06;5071811;28;20164;-71
2022/02/02 15:54:44;;;;;;;4.83;0.43;;;;;;;4.78;81.23;100872.59;5071573;28;20679;-72
2022/02/02 15:58:23;;;;;;;1.47;0.33;;;;;;;4.70;84.42;100889.31;5071521;28;20173;-72
2022/02/02 16:03:37;;;;;;;0.30;0.23;;;;;;;4.66;85.02;100890.09;5071330;28;20190;-72
2022/02/02 16:06:18;;;;;;;2.57;0.83;;;;;;;4.59;86.01;100889.50;5070021;28;20189;-72
2022/02/02 16:08:45;;;;;;;0.97;0.50;;;;;;;4.50;86.94;100891.06;5071518;28;20202;-72
2022/02/02 16:13:42;;;;;;;0.57;0.40;;;;;;;4.33;87.24;100889.31;5071435;28;20171;-67
2022/02/02 16:18:51;;;;;;;3.50;0.63;;;;;;;4.19;88.42;100912.44;5071300;28;20622;-73
2022/02/02 16:37:38;;;;;;;4.53;0.87;;;;;;;3.63;94.09;100927.31;5070894;28;20664;-71
2022/02/02 16:40:06;;;;;;;10.73;0.90;;;;;;;3.61;94.67;100929.44;5070710;28;20261;-71
2022/02/02 16:43:08;;;;;;;9.70;0.97;;;;;;;3.61;95.43;100929.44;5070599;28;20638;-72
2022/02/02 16:45:38;;;;;;;2.00;0.93;;;;;;;3.60;95.72;100934.03;5070060;28;20649;-71
2022/02/02 16:48:04;;;;;;;5.00;1.80;;;;;;;3.57;96.17;100935.34;5069099;28;20210;-71
2022/02/02 16:50:34;;;;;;;5.97;0.40;;;;;;;3.52;96.35;100938.00;5070756;28;20543;-72
2022/02/02 16:53:05;;;;;;;5.60;1.17;;;;;;;3.47;97.40;100939.81;5070678;28;20170;-72
2022/02/02 17:38:35;;;;;;;1.43;1.00;;;;;;;3.03;100.00;100982.16;5070709;28;20158;-73
2022/02/02 18:17:10;;;;;;;1.47;0.30;;;;;;;3.24;100.00;101048.88;5073533;28;20195;-73
2022/02/02 18:19:07;;;;;;;4.53;2.43;;;;;;;3.22;100.00;101045.63;5069859;28;20186;-72
2022/02/02 18:21:33;;;;;;;6.33;1.37;;;;;;;3.24;100.00;101048.88;5073325;28;20170;-72
2022/02/02 18:24:09;;;;;;;3.50;0.43;;;;;;;3.21;100.00;101054.78;5073050;28;20186;-73
2022/02/02 18:26:46;;;;;;;2.93;1.07;;;;;;;3.20;100.00;101053.16;5073422;28;20536;-73
2022/02/02 18:29:29;;;;;;;0.90;0.60;;;;;;;3.26;100.00;101060.25;5073138;28;20209;-73
2022/02/02 18:32:00;;;;;;;3.33;0.53;;;;;;;3.29;100.00;101057.88;5069920;28;20211;-72
2022/02/02 18:34:48;;;;;;;1.50;0.70;;;;;;;3.37;100.00;101062.03;5072958;28;20170;-72
2022/02/02 18:37:59;;;;;;;0.03;0.03;;;;;;;3.41;99.31;101063.19;5072888;28;20209;-72
2022/02/02 18:45:41;;;;;;;4.27;1.77;;;;;;;3.48;97.24;101065.72;5072726;28;20221;-73
2022/02/02 19:55:59;;;;;;;5.13;0.77;;;;;;;2.52;98.44;101059.59;5069909;28;20191;-73
2022/02/02 20:04:33;;;;;;;4.40;1.13;;;;;;;2.31;100.00;101053.81;5071434;28;20319;-73
2022/02/02 20:07:24;;;;;;;12.63;1.90;;;;;;;2.24;100.00;101053.16;5070972;28;20266;-73
2022/02/02 20:12:16;;;;;;;4.90;1.70;;;;;;;2.53;100.00;101072.84;5071511;28;20838;-72
2022/02/02 20:14:41;;;;;;;0.67;0.30;;;;;;;2.69;100.00;101068.53;5070938;28;20175;-73
2022/02/02 20:17:11;;;;;;;7.20;0.70;;;;;;;2.58;99.63;101064.81;5068627;28;20225;-73
2022/02/02 20:19:39;;;;;;;8.70;0.83;;;;;;;2.57;99.58;101056.97;5064513;28;20175;-73
2022/02/02 20:22:05;;;;;;;3.60;1.17;;;;;;;2.71;98.86;101074.47;5070461;28;20175;-73
2022/02/02 20:24:38;;;;;;;0.17;0.10;;;;;;;2.81;98.10;101076.53;5069960;28;20437;-73
2022/02/02 20:27:04;;;;;;;0.20;0.20;;;;;;;2.84;97.51;101076.88;5070308;28;20515;-73
2022/02/02 20:29:31;;;;;;;0.57;0.57;;;;;;;2.90;96.70;101075.09;5071459;28;20193;-73
2022/02/02 20:31:56;;;;;;;0.63;0.50;;;;;;;2.89;96.08;101071.56;5071205;28;20170;-73
2022/02/02 20:34:22;;;;;;;3.83;0.50;;;;;;;2.92;95.49;101060.28;5070068;28;20170;-73
2022/02/02 20:36:47;;;;;;;1.73;0.40;;;;;;;2.86;95.20;101077.44;5069618;28;20186;-73
2022/02/02 20:39:30;;;;;;;8.03;0.40;;;;;;;2.94;94.70;101081.63;5071395;28;20622;-73
2022/02/02 20:41:58;;;;;;;1.17;1.10;;;;;;;2.95;94.21;101084.06;5071137;28;20512;-73
2022/02/02 20:44:41;;;;;;;0.30;0.30;;;;;;;2.89;93.72;101085.06;5069919;28;20178;-73
2022/02/02 21:11:34;;;;;;;0.30;0.30;;;;;;;3.00;92.10;101088.72;5071144;28;20236;-71
2022/02/02 21:13:59;;;;;;;9.03;1.53;;;;;;;2.94;91.57;101089.72;5070961;28;20165;-72
2022/02/02 21:16:29;;;;;;;18.67;1.50;;;;;;;2.93;92.04;101091.59;5070691;28;20171;-73
2022/02/02 21:18:57;;;;;;;29.47;1.47;;;;;;;3.01;91.74;101098.47;5070517;28;20622;-72
2022/02/02 21:21:35;;;;;;;1.20;0.90;;;;;;;2.88;91.93;101096.91;5070954;28;20166;-72
2022/02/02 21:26:47;;;;;;;0.40;0.10;;;;;;;2.86;92.58;101109.81;5071082;28;20212;-72
2022/02/02 21:29:12;;;;;;;1.23;1.13;;;;;;;2.80;92.39;101110.81;5070945;28;20547;-72
2022/02/02 21:31:37;;;;;;;0.20;0.20;;;;;;;2.91;92.21;101109.09;5070371;28;20179;-74
2022/02/02 21:34:03;;;;;;;0.07;0.07;;;;;;;2.88;92.21;101114.97;5073968;28;20638;-73
2022/02/02 21:36:28;;;;;;;1.40;0.27;;;;;;;2.93;92.43;101110.50;5072765;28;20182;-72
2022/02/02 21:39:04;;;;;;;1.50;0.30;;;;;;;2.93;91.89;101115.91;5074026;28;20391;-73
2022/02/02 21:41:35;;;;;;;0.33;0.27;;;;;;;2.95;91.80;101116.47;5074186;28;20596;-73
2022/02/02 21:44:02;;;;;;;0.20;0.20;;;;;;;3.02;91.41;101113.59;5074074;28;20232;-72
2022/02/02 21:46:28;;;;;;;0.53;0.50;;;;;;;2.97;91.12;101103.53;5072607;28;20183;-73
2022/02/02 21:48:54;;;;;;;0.67;0.40;;;;;;;2.99;91.18;101106.00;5073896;28;20206;-72
2022/02/02 21:51:32;;;;;;;1.40;0.70;;;;;;;2.94;91.09;101098.63;5073837;28;20171;-72
2022/02/02 21:53:58;;;;;;;1.83;0.80;;;;;;;2.83;91.66;101098.72;5073979;28;20190;-73
2022/02/02 21:56:24;;;;;;;1.20;0.70;;;;;;;2.75;92.14;101083.75;5073671;28;20210;-72
2022/02/02 21:58:50;;;;;;;10.53;1.70;;;;;;;2.68;92.41;101096.56;5073778;28;20174;-73
2022/02/02 22:01:16;;;;;;;0.50;0.40;;;;;;;2.68;92.83;101085.78;5073730;28;20189;-73
2022/02/02 22:03:42;;;;;;;3.93;1.40;;;;;;;2.67;92.75;101074.16;5073696;28;20650;-73
2022/02/02 22:06:07;;;;;;;5.80;2.63;;;;;;;2.64;93.04;101076.53;5073563;28;20183;-73
2022/02/02 22:08:33;;;;;;;0.20;0.20;;;;;;;2.66;93.41;101079.81;5073470;28;20217;-72
2022/02/02 22:10:58;;;;;;;21.80;0.70;;;;;;;2.71;93.40;101087.97;5073582;28;20619;-73
2022/02/02 22:13:34;;;;;;;0.93;0.50;;;;;;;2.73;92.98;101085.03;5073043;28;20190;-72
2022/02/02 22:16:05;;;;;;;2.47;2.20;;;;;;;2.70;93.00;101083.66;5073241;28;20154;-72
2022/02/02 22:18:30;;;;;;;2.30;1.33;;;;;;;2.73;93.08;101080.44;5073443;28;20627;-72
2022/02/02 22:20:56;;;;;;;2.00;1.17;;;;;;;2.73;92.82;101083.16;5073452;28;20202;-73
2022/02/02 22:23:23;;;;;;;3.60;1.33;;;;;;;2.72;92.83;101081.50;5073272;28;20558;-72
2022/02/02 22:25:49;;;;;;;4.23;0.83;;;;;;;2.68;92.71;101080.38;5073193;28;20181;-73
2022/02/02 22:28:14;;;;;;;5.53;1.60;;;;;;;2.68;92.69;101083.06;5073011;28;20190;-73
2022/02/02 22:30:40;;;;;;;9.67;2.30;;;;;;;2.69;92.79;101082.81;5073147;28;20175;-72
2022/02/02 22:33:05;;;;;;;4.33;0.80;;;;;;;2.70;92.63;101075.53;5073118;28;20167;-73
2022/02/02 22:35:31;;;;;;;11.87;2.20;;;;;;;2.70;92.89;101072.84;5072875;28;20179;-73
2022/02/02 22:37:56;;;;;;;6.83;1.47;;;;;;;2.73;92.95;101068.84;5072711;28;20182;-72
2022/02/02 22:40:25;;;;;;;2.57;1.07;;;;;;;2.74;92.89;101068.59;5073039;28;20167;-73
2022/02/02 22:42:50;;;;;;;1.27;0.70;;;;;;;2.79;92.80;101063.31;5072816;28;20174;-73
2022/02/02 22:45:16;;;;;;;4.40;0.80;;;;;;;2.79;92.50;101062.50;5071963;28;20182;-73
2022/02/02 22:47:46;;;;;;;2.00;0.70;;;;;;;2.80;92.17;101048.75;5072779;28;20231;-73
2022/02/02 22:50:14;;;;;;;1.63;0.80;;;;;;;2.84;91.99;101057.16;5072827;28;20212;-72
2022/02/02 22:52:41;;;;;;;3.40;0.60;;;;;;;2.86;91.94;101060.44;5072490;28;20175;-73